Time;durP1;ratioP1;P1;durP2;ratioP2;P2;SDS_P1;SDS_P2;PMS_P1;PMS_P2;Temp;Humidity;BMP_temperature;BMP_pressure;BME280_temperature;BME280_humidity;BME280_pressure;Samples;Min_cycle;Max_cycle;Signal;HPM_P1;HPM_P2
2022/07/25 00:01:12;;;;;;;;;15.20;14.80;;;;;25.91;100.00;100692.25;4937066;28;44742;-91
2022/07/25 00:03:49;;;;;;;;;17.00;17.00;;;;;25.87;100.00;100691.84;4954116;28;44784;-92
2022/07/25 00:06:28;;;;;;;;;25.00;19.00;;;;;25.80;100.00;100684.69;4957338;28;44850;-91
2022/07/25 00:09:04;;;;;;;;;17.25;17.25;;;;;25.81;100.00;100683.66;4954571;28;45126;-91
2022/07/25 00:11:38;;;;;;;;;18.60;16.20;;;;;25.75;100.00;100670.81;4952856;28;44611;-91
2022/07/25 00:14:17;;;;;;;;;16.00;16.00;;;;;25.78;100.00;100671.31;4947690;28;44725;-91
2022/07/25 00:16:56;;;;;;;;;20.50;18.25;;;;;25.74;100.00;100667.28;4932733;28;45254;-90
2022/07/25 00:20:00;;;;;;;;;;;;;;;;;;;;;
2022/07/25 00:22:32;;;;;;;;;15.60;13.60;;;;;25.66;100.00;100663.88;4939652;28;72185;-89
2022/07/25 00:25:02;;;;;;;;;15.40;14.00;;;;;25.61;100.00;100656.31;4931950;28;44664;-88
2022/07/25 00:27:39;;;;;;;;;15.00;13.50;;;;;25.60;100.00;100654.66;4932779;28;45250;-89
2022/07/25 00:30:05;;;;;;;;;13.20;13.20;;;;;25.59;100.00;100650.25;4924732;28;45063;-88
2022/07/25 00:32:52;;;;;;;;;15.60;15.20;;;;;25.55;100.00;100652.53;4925698;28;45385;-89
2022/07/25 00:35:18;;;;;;;;;15.25;15.25;;;;;25.50;100.00;100648.75;4925996;28;45351;-89
2022/07/25 00:37:43;;;;;;;;;14.75;14.75;;;;;25.48;100.00;100648.09;4912871;28;44780;-89
2022/07/25 00:40:10;;;;;;;;;16.50;16.50;;;;;25.49;100.00;100657.97;4923510;28;45329;-88
2022/07/25 00:42:35;;;;;;;;;12.80;12.80;;;;;25.49;100.00;100647.09;4936657;28;44725;-89
2022/07/25 00:45:01;;;;;;;;;19.50;17.75;;;;;25.48;100.00;100639.94;4926585;28;44785;-89
2022/07/25 00:47:27;;;;;;;;;14.25;13.75;;;;;25.44;100.00;100633.25;4924724;28;44850;-89
2022/07/25 00:49:55;;;;;;;;;20.25;16.00;;;;;25.44;100.00;100642.25;4906346;28;46721;-89
2022/07/25 00:52:24;;;;;;;;;17.00;14.80;;;;;25.46;100.00;100636.59;4923748;28;44608;-90
2022/07/25 00:54:53;;;;;;;;;18.00;15.80;;;;;25.42;100.00;100630.72;4933120;28;44823;-89
2022/07/25 00:57:22;;;;;;;;;16.25;15.50;;;;;25.41;100.00;100634.47;4936578;28;44868;-88
2022/07/25 00:59:53;;;;;;;;;15.00;15.00;;;;;25.37;100.00;100628.59;4916033;28;46892;-88
2022/07/25 01:02:22;;;;;;;;;15.20;14.00;;;;;25.34;100.00;100630.91;4930507;28;44755;-90
2022/07/25 01:04:50;;;;;;;;;14.40;13.80;;;;;25.30;100.00;100635.91;4925985;28;44596;-89
2022/07/25 01:07:16;;;;;;;;;15.25;14.75;;;;;25.29;100.00;100634.22;4908951;28;44831;-89
2022/07/25 01:09:41;;;;;;;;;18.25;16.25;;;;;25.22;100.00;100630.63;4910545;28;44995;-89
2022/07/25 01:12:09;;;;;;;;;15.00;15.00;;;;;25.21;100.00;100634.38;4929564;28;44832;-89
2022/07/25 01:14:35;;;;;;;;;17.20;15.20;;;;;25.20;100.00;100632.72;4927073;28;44698;-88
2022/07/25 01:17:01;;;;;;;;;18.75;15.25;;;;;25.17;100.00;100632.25;4916951;28;44980;-88
2022/07/25 01:19:29;;;;;;;;;17.50;16.50;;;;;25.17;100.00;100643.16;4928445;28;44998;-88
2022/07/25 01:21:55;;;;;;;;;18.80;15.00;;;;;25.09;100.00;100646.84;4922227;28;44737;-89
2022/07/25 01:24:21;;;;;;;;;14.25;14.25;;;;;25.02;100.00;100663.09;4922932;28;44857;-90
2022/07/25 01:26:47;;;;;;;;;17.50;14.50;;;;;25.05;100.00;100651.84;4906361;28;44798;-90
2022/07/25 01:29:17;;;;;;;;;16.75;15.25;;;;;25.12;100.00;100660.06;4923386;28;45051;-89
2022/07/25 01:31:43;;;;;;;;;14.80;14.20;;;;;25.22;100.00;100641.50;4916531;28;44634;-88
2022/07/25 01:34:10;;;;;;;;;15.25;13.75;;;;;25.27;100.00;100639.00;4927019;28;45006;-88
2022/07/25 01:36:39;;;;;;;;;14.50;12.25;;;;;25.36;100.00;100653.28;4921620;28;45007;-89
2022/07/25 01:39:10;;;;;;;;;13.20;11.60;;;;;25.38;100.00;100651.19;4923439;28;45125;-89
2022/07/25 01:41:38;;;;;;;;;15.60;14.00;;;;;25.43;100.00;100645.97;4909248;28;44863;-91
2022/07/25 01:44:10;;;;;;;;;10.60;10.60;;;;;25.46;100.00;100642.03;4908921;28;45171;-92
2022/07/25 01:46:39;;;;;;;;;13.00;13.00;;;;;25.49;100.00;100642.47;4907543;28;45008;-91
2022/07/25 01:49:10;;;;;;;;;15.60;14.80;;;;;25.51;100.00;100642.25;4909025;28;45099;-91
2022/07/25 01:51:42;;;;;;;;;13.00;13.00;;;;;25.54;100.00;100639.16;4935731;28;44785;-91
2022/07/25 01:54:19;;;;;;;;;14.80;14.20;;;;;25.55;100.00;100638.09;4932141;28;44776;-91
2022/07/25 01:56:45;;;;;;;;;14.00;12.60;;;;;25.54;100.00;100644.59;4930901;28;44823;-90
2022/07/25 01:59:16;;;;;;;;;15.50;12.25;;;;;25.52;100.00;100635.78;4924020;28;45442;-91
2022/07/25 02:01:52;;;;;;;;;15.00;13.20;;;;;25.54;100.00;100637.25;4910709;28;44631;-91
2022/07/25 02:04:28;;;;;;;;;13.40;12.80;;;;;25.54;100.00;100641.88;4929459;28;44596;-91
2022/07/25 02:07:04;;;;;;;;;16.00;13.25;;;;;25.51;100.00;100640.38;4929588;28;44837;-91
2022/07/25 02:09:42;;;;;;;;;14.80;13.60;;;;;25.48;100.00;100642.66;4907662;28;45361;-91
2022/07/25 02:12:12;;;;;;;;;13.80;10.60;;;;;25.45;100.00;100643.91;4925821;28;44774;-91
2022/07/25 02:14:46;;;;;;;;;10.20;9.20;;;;;25.44;100.00;100636.81;4913029;28;44658;-90
2022/07/25 02:17:20;;;;;;;;;12.20;12.20;;;;;25.42;100.00;100638.03;4913107;28;44770;-92
2022/07/25 02:20:00;;;;;;;;;13.20;12.20;;;;;25.40;100.00;100631.97;4915645;28;45286;-92
2022/07/25 02:22:35;;;;;;;;;11.00;10.20;;;;;25.38;100.00;100629.44;4942379;28;44746;-91
2022/07/25 02:25:10;;;;;;;;;11.80;9.80;;;;;25.37;100.00;100628.59;4926874;28;44734;-91
2022/07/25 02:27:47;;;;;;;;;13.25;12.00;;;;;25.37;100.00;100628.59;4933376;28;44800;-91
2022/07/25 02:30:21;;;;;;;;;10.80;10.80;;;;;25.36;100.00;100620.66;4937188;28;45142;-91
2022/07/25 02:33:01;;;;;;;;;12.60;10.40;;;;;25.35;100.00;100627.13;4927145;28;44734;-91
2022/07/25 02:35:35;;;;;;;;;10.20;10.20;;;;;25.30;100.00;100630.47;4945558;28;44697;-91
2022/07/25 02:38:12;;;;;;;;;12.00;11.80;;;;;25.22;100.00;100625.19;4943633;28;44627;-90
2022/07/25 02:40:52;;;;;;;;;12.20;10.60;;;;;25.18;100.00;100617.63;4925973;28;46847;-91
2022/07/25 02:43:29;;;;;;;;;12.00;10.60;;;;;25.07;100.00;100622.59;4946105;28;44728;-91
2022/07/25 02:46:04;;;;;;;;;12.00;11.00;;;;;24.95;100.00;100610.59;4929468;28;44591;-91
2022/07/25 02:48:38;;;;;;;;;11.25;9.75;;;;;24.93;100.00;100618.09;4929657;28;44810;-90
2022/07/25 02:51:18;;;;;;;;;12.00;12.00;;;;;24.88;100.00;100629.56;4945575;28;45129;-90
2022/07/25 02:54:11;;;;;;;;;14.00;11.60;;;;;24.67;100.00;100624.19;4944858;28;44637;-92
2022/07/25 02:56:46;;;;;;;;;9.80;7.80;;;;;24.51;100.00;100621.75;4930860;28;44677;-91
2022/07/25 02:59:12;;;;;;;;;13.00;12.75;;;;;24.33;100.00;100631.19;4930756;28;44876;-89
2022/07/25 03:01:40;;;;;;;;;13.00;13.00;;;;;24.09;100.00;100632.41;4946620;28;45074;-89
2022/07/25 03:04:06;;;;;;;;;12.20;10.60;;;;;24.01;100.00;100635.25;4926517;28;44717;-89
2022/07/25 03:06:35;;;;;;;;;11.75;11.75;;;;;23.97;100.00;100631.25;4927244;28;44824;-89
2022/07/25 03:09:03;;;;;;;;;10.60;10.00;;;;;23.81;100.00;100624.19;4907333;28;44837;-89
2022/07/25 03:11:30;;;;;;;;;9.60;8.20;;;;;23.70;100.00;100619.28;4927772;28;44944;-89
2022/07/25 03:14:04;;;;;;;;;9.80;8.20;;;;;23.55;100.00;100630.13;4911547;29;44762;-89
2022/07/25 03:16:30;;;;;;;;;9.00;8.20;;;;;23.23;100.00;100633.25;4911198;28;44918;-89
2022/07/25 03:18:56;;;;;;;;;9.50;8.25;;;;;23.08;100.00;100636.78;4927457;28;44886;-89
2022/07/25 03:21:22;;;;;;;;;7.00;7.00;;;;;22.99;100.00;100646.03;4909264;29;46702;-88
2022/07/25 03:23:48;;;;;;;;;9.00;6.50;;;;;22.82;100.00;100639.94;4908836;28;44724;-89
2022/07/25 03:26:13;;;;;;;;;8.00;7.25;;;;;22.67;100.00;100647.16;4911396;29;44793;-89
2022/07/25 03:28:39;;;;;;;;;8.25;7.25;;;;;22.60;100.00;100646.22;4891849;29;44936;-90
2022/07/25 03:31:05;;;;;;;;;6.00;5.00;;;;;22.59;100.00;100647.25;4907126;29;45279;-89
2022/07/25 03:33:31;;;;;;;;;4.25;4.25;;;;;22.46;100.00;100650.59;4909446;29;44675;-89
2022/07/25 03:35:56;;;;;;;;;7.00;7.00;;;;;22.30;100.00;100662.38;4896455;29;44666;-90
2022/07/25 03:38:23;;;;;;;;;5.25;5.25;;;;;22.18;100.00;100669.22;4893381;29;44837;-89
2022/07/25 03:40:57;;;;;;;;;3.20;2.80;;;;;22.18;100.00;100665.69;4894472;29;45074;-89
2022/07/25 03:43:23;;;;;;;;;4.40;4.20;;;;;22.08;100.00;100666.72;4912024;28;44805;-90
2022/07/25 03:45:48;;;;;;;;;5.00;5.00;;;;;22.05;100.00;100669.81;4909052;29;44743;-90
2022/07/25 03:48:14;;;;;;;;;4.25;4.25;;;;;22.10;100.00;100673.81;4892462;29;44985;-89
2022/07/25 03:50:41;;;;;;;;;2.40;2.40;;;;;22.02;100.00;100669.31;4908676;29;45314;-89
2022/07/25 03:53:07;;;;;;;;;6.80;4.60;;;;;22.00;100.00;100672.22;4888145;29;44851;-89
2022/07/25 03:55:34;;;;;;;;;5.00;5.00;;;;;21.97;100.00;100677.97;4909244;29;44697;-89
2022/07/25 03:58:03;;;;;;;;;3.60;3.40;;;;;21.96;100.00;100703.34;4912803;29;44745;-89
2022/07/25 04:00:32;;;;;;;;;5.60;4.60;;;;;21.91;100.00;100694.09;4913058;29;45111;-90
2022/07/25 04:02:58;;;;;;;;;5.20;4.20;;;;;21.87;100.00;100704.41;4912891;29;44767;-89
2022/07/25 04:05:25;;;;;;;;;3.00;3.00;;;;;21.88;100.00;100703.38;4895578;29;44742;-90
2022/07/25 04:08:11;;;;;;;;;5.20;4.00;;;;;21.90;100.00;100686.97;4921065;29;44624;-91
2022/07/25 04:10:50;;;;;;;;;2.20;2.20;;;;;21.96;100.00;100699.81;4905003;29;45033;-91
2022/07/25 04:13:33;;;;;;;;;4.20;4.20;;;;;21.98;100.00;100716.69;4874427;29;44808;-92
2022/07/25 04:15:58;;;;;;;;;4.00;4.00;;;;;21.87;100.00;100709.81;4897316;29;45170;-90
2022/07/25 04:18:24;;;;;;;;;2.00;2.00;;;;;21.82;100.00;100709.50;4888449;29;44846;-88
2022/07/25 04:20:49;;;;;;;;;2.00;2.00;;;;;21.73;100.00;100708.69;4905958;29;45423;-88
2022/07/25 04:27:08;;;;;;;;;1.20;1.20;;;;;21.69;100.00;100704.66;4919282;29;44726;-92
2022/07/25 04:30:21;;;;;;;;;1.60;1.60;;;;;21.63;100.00;100710.78;4914220;29;44920;-91
2022/07/25 04:36:36;;;;;;;;;2.40;2.00;;;;;21.54;100.00;100728.88;4919540;29;44692;-89
2022/07/25 04:39:02;;;;;;;;;2.00;2.00;;;;;21.44;100.00;100716.59;4909307;29;44772;-89
2022/07/25 04:41:28;;;;;;;;;2.00;2.00;;;;;21.39;100.00;100718.97;4890019;29;44950;-88
2022/07/25 04:43:54;;;;;;;;;3.00;3.00;;;;;21.27;100.00;100721.16;4905522;28;45315;-88
2022/07/25 04:46:21;;;;;;;;;2.60;1.00;;;;;21.21;100.00;100724.53;4888731;29;44768;-88
2022/07/25 04:48:46;;;;;;;;;3.00;3.00;;;;;21.22;100.00;100729.78;4897053;29;44739;-87
2022/07/25 04:51:12;;;;;;;;;1.50;1.50;;;;;21.21;100.00;100738.91;4898185;29;44990;-88
2022/07/25 04:53:38;;;;;;;;;3.00;3.00;;;;;21.15;100.00;100750.41;4896737;29;45288;-89
2022/07/25 04:56:23;;;;;;;;;3.50;2.25;;;;;21.18;100.00;100741.13;4912197;28;44797;-91
2022/07/25 04:58:57;;;;;;;;;2.00;2.00;;;;;21.27;100.00;100727.41;4923243;29;44716;-90
2022/07/25 05:01:46;;;;;;;;;3.00;3.00;;;;;21.21;100.00;100732.66;4922966;28;44832;-90
2022/07/25 05:04:38;;;;;;;;;3.00;3.00;;;;;21.08;100.00;100729.63;4919270;28;45133;-91
2022/07/25 05:07:22;;;;;;;;;1.00;1.00;;;;;21.04;100.00;100727.28;4917017;29;44762;-92
2022/07/25 05:10:01;;;;;;;;;0.80;0.80;;;;;21.07;100.00;100734.19;4904163;29;44661;-91
2022/07/25 05:12:27;;;;;;;;;3.40;2.00;;;;;20.94;100.00;100744.69;5163561;23;46002;-90
2022/07/25 05:14:53;;;;;;;;;4.00;2.00;;;;;20.96;100.00;100745.34;4956223;28;45333;-89
2022/07/25 05:17:19;;;;;;;;;2.00;1.00;;;;;20.95;100.00;100757.19;4964832;28;44602;-90
2022/07/25 05:19:45;;;;;;;;;2.25;2.25;;;;;20.98;100.00;100771.19;4964105;28;44703;-89
2022/07/25 05:22:11;;;;;;;;;2.50;2.00;;;;;21.02;100.00;100755.47;4950237;28;44783;-90
2022/07/25 05:24:36;;;;;;;;;1.50;1.50;;;;;21.12;100.00;100760.69;4946873;28;45409;-89
2022/07/25 05:33:25;;;;;;;;;2.50;2.50;;;;;21.06;100.00;100762.22;4930755;28;46151;-90
2022/07/25 05:35:51;;;;;;;;;2.20;2.20;;;;;21.01;100.00;100776.25;4915336;28;45230;-89
2022/07/25 05:38:17;;;;;;;;;3.00;2.25;;;;;21.04;100.00;100775.06;4935021;28;44594;-89
2022/07/25 05:40:44;;;;;;;;;2.60;2.00;;;;;20.99;100.00;100764.78;4932957;28;44658;-89
2022/07/25 05:43:10;;;;;;;;;2.00;2.00;;;;;20.90;100.00;100778.44;4926283;28;44821;-88
2022/07/25 05:45:36;;;;;;;;;4.00;2.25;;;;;20.85;100.00;100787.06;4931641;28;45186;-87
2022/07/25 05:48:01;;;;;;;;;5.25;4.00;;;;;20.89;100.00;100774.91;4932096;28;44754;-88
2022/07/25 05:50:27;;;;;;;;;0.25;0.25;;;;;20.90;100.00;100773.88;4924648;28;44815;-89
2022/07/25 05:52:52;;;;;;;;;2.25;2.25;;;;;20.94;100.00;100783.34;4923434;28;44784;-89
2022/07/25 05:55:18;;;;;;;;;4.00;2.75;;;;;21.05;100.00;100771.34;4921852;28;45403;-90
2022/07/25 05:57:44;;;;;;;;;5.00;2.25;;;;;21.21;100.00;100775.88;4921642;28;44757;-90
2022/07/25 06:00:10;;;;;;;;;4.00;2.20;;;;;21.24;100.00;100781.81;4940674;28;44786;-90
2022/07/25 06:02:36;;;;;;;;;4.40;2.80;;;;;21.42;100.00;100784.34;4934310;28;44755;-90
2022/07/25 06:05:02;;;;;;;;;4.00;2.00;;;;;21.57;100.00;100779.06;4933403;28;45167;-90
2022/07/25 06:07:27;;;;;;;;;3.50;2.25;;;;;21.54;100.00;100796.47;4925213;28;44849;-90
2022/07/25 06:09:53;;;;;;;;;3.75;3.00;;;;;21.80;100.00;100795.38;4928322;28;44614;-89
2022/07/25 06:12:18;;;;;;;;;3.75;2.00;;;;;;;;4927594;28;44812;-90
2022/07/25 06:14:44;;;;;;;;;2.00;2.00;;;;;22.10;100.00;100801.00;4929046;28;45200;-90
2022/07/25 06:17:09;;;;;;;;;5.25;2.00;;;;;22.34;100.00;100811.75;4930359;28;45455;-89
2022/07/25 06:19:35;;;;;;;;;2.25;2.25;;;;;22.01;100.00;100802.91;4926856;28;44646;-87
2022/07/25 06:22:01;;;;;;;;;2.00;2.00;;;;;22.15;100.00;100804.91;4925630;28;44785;-89
2022/07/25 06:24:27;;;;;;;;;2.60;2.60;;;;;22.22;100.00;100821.28;4924806;28;45065;-89
2022/07/25 06:26:52;;;;;;;;;2.00;2.00;;;;;22.15;100.00;100809.50;4924803;28;44753;-89
2022/07/25 06:29:18;;;;;;;;;1.75;1.75;;;;;22.22;100.00;100821.28;4926540;28;44827;-89
2022/07/25 06:31:44;;;;;;;;;3.00;3.00;;;;;22.11;100.00;100825.22;4932880;28;44804;-89
2022/07/25 06:34:09;;;;;;;;;3.75;3.00;;;;;22.24;100.00;100806.56;4961799;28;45484;-89
2022/07/25 06:36:35;;;;;;;;;5.25;4.00;;;;;22.18;100.00;100809.97;4959541;28;44792;-90
2022/07/25 06:39:01;;;;;;;;;3.50;3.00;;;;;22.14;100.00;100811.31;4947146;28;44732;-90
2022/07/25 06:41:26;;;;;;;;;2.60;2.60;;;;;22.13;100.00;100825.03;4949424;28;44716;-89
2022/07/25 06:43:52;;;;;;;;;4.75;2.00;;;;;22.12;100.00;100826.06;4945446;28;45681;-89
2022/07/25 06:46:19;;;;;;;;;2.75;2.75;;;;;22.07;100.00;100831.97;4947442;28;44725;-90
2022/07/25 06:48:44;;;;;;;;;2.40;2.00;;;;;22.15;100.00;100826.56;4943131;28;45320;-89
2022/07/25 06:51:10;;;;;;;;;2.00;2.00;;;;;22.19;100.00;100816.22;4944052;28;44831;-90
2022/07/25 06:53:35;;;;;;;;;3.50;3.00;;;;;22.49;100.00;100822.66;4946351;28;45118;-89
2022/07/25 06:56:01;;;;;;;;;6.00;4.25;;;;;22.50;100.00;100821.66;4944869;28;45257;-89
2022/07/25 06:58:27;;;;;;;;;3.00;3.00;;;;;22.56;100.00;100831.75;4942370;28;44808;-89
2022/07/25 07:00:53;;;;;;;;;4.40;3.40;;;;;22.51;100.00;100820.63;4941840;28;44904;-89
2022/07/25 07:03:19;;;;;;;;;6.25;3.00;;;;;22.47;100.00;100830.13;4941277;28;45337;-89
2022/07/25 07:05:44;;;;;;;;;3.00;3.00;;;;;22.69;100.00;100839.31;4942089;28;44793;-90
2022/07/25 07:08:10;;;;;;;;;3.25;3.25;;;;;22.94;100.00;100854.38;4946237;28;45397;-90
2022/07/25 07:10:35;;;;;;;;;1.00;1.00;;;;;22.93;100.00;100851.88;4959628;28;45353;-90
2022/07/25 07:13:09;;;;;;;;;2.00;2.00;;;;;22.89;100.00;100864.94;4944616;28;45282;-89
2022/07/25 07:15:35;;;;;;;;;6.20;4.00;;;;;22.86;100.00;100856.28;4947144;28;44824;-89
2022/07/25 07:18:00;;;;;;;;;24.00;21.00;;;;;22.87;100.00;100861.53;4950405;28;44688;-89
2022/07/25 07:20:26;;;;;;;;;4.25;2.50;;;;;22.86;100.00;100856.28;4952046;28;44828;-89
2022/07/25 07:22:52;;;;;;;;;3.00;3.00;;;;;23.07;100.00;100861.94;4951844;28;45204;-89
2022/07/25 07:25:19;;;;;;;;;4.25;4.25;;;;;22.91;100.00;100857.44;4962964;28;44639;-90
2022/07/25 07:27:46;;;;;;;;;3.80;3.20;;;;;22.91;100.00;100864.75;4950317;28;44612;-89
2022/07/25 07:30:15;;;;;;;;;3.80;3.80;;;;;22.98;100.00;100861.13;4950334;28;44896;-89
2022/07/25 07:32:41;;;;;;;;;4.80;3.60;;;;;22.95;100.00;100856.06;4945454;28;45313;-88
2022/07/25 07:35:10;;;;;;;;;3.60;3.60;;;;;23.15;100.00;100858.28;4947597;28;44586;-89
2022/07/25 07:37:38;;;;;;;;;5.80;3.40;;;;;23.33;100.00;100867.78;4951896;28;44721;-89
2022/07/25 07:40:04;;;;;;;;;3.60;2.60;;;;;23.40;100.00;100857.03;4958278;28;44851;-88
2022/07/25 07:45:17;;;;;;;;;3.00;3.00;;;;;23.39;100.00;100871.63;5223640;23;45780;-88
2022/07/25 07:47:45;;;;;;;;;4.00;4.00;;;;;23.14;100.00;100889.13;4907314;29;44679;-89
2022/07/25 07:50:11;;;;;;;;;5.80;3.00;;;;;22.90;100.00;100887.44;4906881;29;44787;-89
2022/07/25 07:52:36;;;;;;;;;3.50;3.50;;;;;22.74;100.00;100889.19;4908965;29;45059;-91
2022/07/25 07:57:49;;;;;;;;;3.60;2.40;;;;;23.06;100.00;100882.78;4910035;29;45402;-90
2022/07/25 08:00:16;;;;;;;;;3.00;3.00;;;;;23.37;100.00;100883.72;4897341;29;45359;-89
2022/07/25 08:02:47;;;;;;;;;4.20;4.20;;;;;23.35;100.00;100886.56;4912035;29;45228;-90
2022/07/25 08:05:19;;;;;;;;;4.80;3.00;;;;;23.38;100.00;100888.94;4907900;29;44747;-90
2022/07/25 08:07:44;;;;;;;;;2.80;2.80;;;;;23.57;100.00;100887.59;4895358;29;45255;-91
2022/07/25 08:10:10;;;;;;;;;3.00;3.00;;;;;23.59;100.00;100882.81;4910433;29;44790;-90
2022/07/25 08:12:39;;;;;;;;;3.75;2.00;;;;;23.60;100.00;100882.66;4905833;29;44970;-90
2022/07/25 08:15:05;;;;;;;;;3.00;3.00;;;;;23.43;100.00;100896.53;4891268;29;45442;-90
2022/07/25 08:17:31;;;;;;;;;2.40;2.20;;;;;23.60;100.00;100895.38;4923312;29;44722;-90
2022/07/25 08:19:56;;;;;;;;;4.25;3.00;;;;;23.82;100.00;100886.34;4923590;29;44774;-89
2022/07/25 08:22:21;;;;;;;;;3.00;3.00;;;;;23.94;100.00;100894.03;4921382;29;45129;-89
2022/07/25 08:24:47;;;;;;;;;1.25;0.75;;;;;24.15;100.00;100898.72;4921461;29;44627;-90
2022/07/25 08:27:12;;;;;;;;;4.25;2.00;;;;;24.05;100.00;100896.28;4920787;29;44916;-90
2022/07/25 08:29:38;;;;;;;;;3.00;2.00;;;;;23.81;100.00;100911.78;4919859;29;44888;-89
2022/07/25 08:32:18;;;;;;;;;2.00;2.00;;;;;23.85;100.00;100906.84;4916002;29;44968;-90
2022/07/25 08:34:44;;;;;;;;;3.60;2.00;;;;;23.81;100.00;100909.09;4913002;29;44765;-89
2022/07/25 08:37:09;;;;;;;;;0.25;0.25;;;;;23.63;100.00;100908.53;4907704;29;45151;-89
2022/07/25 08:39:35;;;;;;;;;2.25;2.25;;;;;23.58;100.00;100919.94;4908836;29;45261;-89
2022/07/25 08:42:02;;;;;;;;;3.75;2.25;;;;;23.75;100.00;100903.56;4895058;29;46548;-90
2022/07/25 08:44:35;;;;;;;;;2.00;1.00;;;;;24.06;100.00;100906.09;4898758;28;44600;-90
2022/07/25 08:47:01;;;;;;;;;1.00;1.00;;;;;24.10;100.00;100904.72;4912293;28;44705;-90
2022/07/25 08:49:27;;;;;;;;;1.60;1.60;;;;;24.10;100.00;100904.72;4930883;28;45174;-90
2022/07/25 08:51:55;;;;;;;;;1.20;1.00;;;;;24.18;100.00;100912.78;4936059;28;45094;-91
2022/07/25 08:54:23;;;;;;;;;3.00;1.40;;;;;24.39;100.00;100908.47;4937543;28;45279;-90
2022/07/25 08:56:48;;;;;;;;;1.00;1.00;;;;;24.47;100.00;100902.94;4916624;28;44723;-90
2022/07/25 08:59:14;;;;;;;;;1.50;1.50;;;;;24.77;100.00;100904.56;4935360;28;44828;-90
2022/07/25 09:01:40;;;;;;;;;2.25;2.25;;;;;25.18;100.00;100917.56;4935542;28;45478;-89
2022/07/25 09:04:08;;;;;;;;;0.50;0.00;;;;;25.04;100.00;100916.56;4918654;28;44797;-89
2022/07/25 09:06:36;;;;;;;;;1.00;1.00;;;;;25.19;100.00;100905.69;4918972;28;44668;-90
2022/07/25 09:09:03;;;;;;;;;2.40;1.00;;;;;24.76;100.00;100921.91;4933114;28;44808;-89
2022/07/25 09:11:32;;;;;;;;;0.00;0.00;;;;;24.80;100.00;100923.22;4916269;28;46720;-90
2022/07/25 09:14:00;;;;;;;;;2.00;2.00;;;;;24.63;100.00;100910.88;4931813;28;44687;-90
2022/07/25 09:16:33;;;;;;;;;2.00;1.40;;;;;24.48;100.00;100929.91;4928834;28;44612;-90
2022/07/25 09:19:13;;;;;;;;;2.00;1.40;;;;;24.74;100.00;100931.28;4929250;28;44817;-90
2022/07/25 09:21:42;;;;;;;;;4.20;2.00;;;;;24.69;100.00;100926.41;4928087;28;45123;-90
2022/07/25 09:24:30;;;;;;;;;0.00;0.00;;;;;24.40;100.00;100932.72;4925184;28;44671;-90
2022/07/25 09:26:59;;;;;;;;;2.60;1.40;;;;;24.57;100.00;100930.66;4846880;29;44780;-89
2022/07/25 09:29:32;;;;;;;;;4.80;3.00;;;;;24.47;100.00;100936.38;4832946;29;44975;-90
2022/07/25 09:32:01;;;;;;;;;3.80;3.00;;;;;24.66;100.00;100937.69;4833759;29;45360;-90
2022/07/25 09:34:41;;;;;;;;;2.20;1.20;;;;;25.05;100.00;100944.63;4847764;29;44727;-90
2022/07/25 09:37:09;;;;;;;;;1.80;1.80;;;;;25.00;100.00;100928.88;4845740;29;44779;-88
2022/07/25 09:39:50;;;;;;;;;3.60;2.00;;;;;25.18;100.00;100952.09;4852781;29;44891;-89
2022/07/25 09:42:31;;;;;;;;;1.60;1.00;;;;;24.98;100.00;100938.25;4835809;29;45340;-89
2022/07/25 09:45:00;;;;;;;;;2.00;2.00;;;;;24.83;100.00;100947.28;4853414;29;44748;-90
2022/07/25 09:47:26;;;;;;;;;2.00;2.00;;;;;25.08;100.00;100942.34;4848642;29;44969;-90
2022/07/25 09:49:52;;;;;;;;;0.00;0.00;;;;;25.20;100.00;100948.16;4837434;29;44906;-89
2022/07/25 10:00:59;;;;;;;;;1.80;1.80;;;;;25.41;100.00;100958.19;4925777;28;44819;-89
2022/07/25 10:04:02;;;;;;;;;6.40;4.20;;;;;25.75;100.00;100946.59;4909383;28;45768;-89
2022/07/25 10:06:48;;;;;;;;;2.00;2.00;;;;;25.83;100.00;100951.91;4908560;28;44693;-89
2022/07/25 10:09:14;;;;;;;;;2.20;0.40;;;;;25.95;100.00;100945.91;4929813;28;45234;-89
2022/07/25 10:11:40;;;;;;;;;2.60;2.60;;;;;26.04;100.00;100961.03;4915057;28;44886;-89
2022/07/25 10:14:11;;;;;;;;;3.00;3.00;;;;;25.81;100.00;100964.00;4935497;28;45159;-89
2022/07/25 10:16:46;;;;;;;;;6.40;4.40;;;;;25.74;100.00;100954.94;4916106;28;44653;-89
2022/07/25 10:19:12;;;;;;;;;3.20;3.20;;;;;25.74;100.00;100961.22;4930812;28;44609;-90
2022/07/25 10:21:37;;;;;;;;;3.00;1.25;;;;;25.67;100.00;100948.56;4929818;28;44757;-88
2022/07/25 10:24:06;;;;;;;;;3.00;3.00;;;;;25.94;100.00;100960.56;4927608;28;44960;-89
2022/07/25 10:26:33;;;;;;;;;1.00;1.00;;;;;25.59;100.00;100946.84;4910847;28;44800;-89
2022/07/25 10:29:00;;;;;;;;;2.00;2.00;;;;;25.80;100.00;100960.44;4929506;28;44756;-89
2022/07/25 10:31:40;;;;;;;;;2.00;2.00;;;;;25.47;100.00;100971.00;4923727;28;44883;-88
2022/07/25 10:34:08;;;;;;;;;2.00;2.00;;;;;25.19;100.00;100970.94;4926736;28;45117;-88
2022/07/25 10:36:47;;;;;;;;;1.00;1.00;;;;;25.11;100.00;100965.63;4924748;28;45242;-89
2022/07/25 10:39:17;;;;;;;;;1.00;1.00;;;;;25.12;100.00;100964.56;4924820;28;44711;-89
2022/07/25 10:41:54;;;;;;;;;2.40;2.40;;;;;25.22;100.00;100973.25;4924938;28;44834;-91
2022/07/25 10:44:20;;;;;;;;;3.60;2.00;;;;;25.18;100.00;100974.69;4936491;28;45047;-90
2022/07/25 10:46:47;;;;;;;;;4.00;2.80;;;;;25.31;100.00;100965.81;4940443;28;44733;-90
2022/07/25 10:49:25;;;;;;;;;1.60;1.60;;;;;25.36;100.00;100966.09;4936652;28;45247;-89
2022/07/25 10:52:04;;;;;;;;;2.20;2.20;;;;;25.43;100.00;100966.97;4928620;28;45427;-90
2022/07/25 10:54:37;;;;;;;;;2.40;2.40;;;;;25.53;100.00;100977.53;4910283;28;45225;-89
2022/07/25 10:57:05;;;;;;;;;5.60;2.40;;;;;25.44;100.00;100976.00;4909752;28;45467;-89
2022/07/25 10:59:32;;;;;;;;;2.40;2.40;;;;;24.88;100.00;100990.19;4926935;28;44724;-90
2022/07/25 11:01:59;;;;;;;;;2.60;2.60;;;;;24.53;100.00;100986.41;4908930;28;44896;-90
2022/07/25 11:04:25;;;;;;;;;2.80;2.00;;;;;24.56;100.00;100986.88;4914320;28;46321;-89
2022/07/25 11:06:51;;;;;;;;;2.00;1.00;;;;;24.61;100.00;100997.16;4930979;28;45363;-90
2022/07/25 11:15:14;;;;;;;;;2.00;2.00;;;;;25.15;100.00;100991.41;5331680;23;45640;-89
2022/07/25 11:17:50;;;;;;;;;3.25;2.00;;;;;25.30;100.00;100991.34;4893420;29;45322;-90
2022/07/25 11:20:18;;;;;;;;;5.00;3.40;;;;;25.08;100.00;101004.88;4894521;29;44778;-90
2022/07/25 11:22:51;;;;;;;;;4.20;2.60;;;;;25.17;100.00;100988.47;4900497;29;44895;-90
2022/07/25 11:25:16;;;;;;;;;5.00;2.80;;;;;25.21;100.00;100998.78;4915683;29;45243;-89
2022/07/25 11:27:42;;;;;;;;;5.50;5.50;;;;;25.38;100.00;101005.69;4911076;29;44745;-91
2022/07/25 11:30:15;;;;;;;;;2.00;2.00;;;;;25.29;100.00;100993.22;4915956;29;44706;-90
2022/07/25 11:32:46;;;;;;;;;4.00;3.00;;;;;25.22;100.00;100999.63;4917635;29;44744;-90
2022/07/25 11:35:13;;;;;;;;;3.20;3.00;;;;;25.04;100.00;101000.00;4918106;29;45083;-91
2022/07/25 11:37:41;;;;;;;;;4.00;3.00;;;;;25.30;100.00;100997.63;4919213;29;44716;-91
2022/07/25 11:40:07;;;;;;;;;3.20;3.00;;;;;25.55;100.00;100987.19;4905288;29;44834;-90
2022/07/25 11:42:52;;;;;;;;;2.60;2.60;;;;;25.62;100.00;100992.69;4921148;28;44976;-90
2022/07/25 11:45:20;;;;;;;;;5.00;3.80;;;;;25.69;100.00;100998.22;4917831;29;45294;-90
2022/07/25 11:48:09;;;;;;;;;4.20;1.40;;;;;25.29;100.00;100993.22;4909312;29;44710;-91
2022/07/25 11:50:38;;;;;;;;;5.20;3.80;;;;;25.49;100.00;100989.88;4898784;29;45338;-90
2022/07/25 11:53:09;;;;;;;;;3.00;3.00;;;;;25.77;100.00;100982.63;4901689;29;44761;-90
2022/07/25 11:55:39;;;;;;;;;2.60;2.00;;;;;26.28;100.00;100979.66;4913685;29;45367;-91
2022/07/25 11:58:05;;;;;;;;;2.20;2.20;;;;;26.42;100.00;100982.47;4913219;29;44709;-91
2022/07/25 12:00:34;;;;;;;;;1.60;1.60;;;;;26.25;100.00;100979.19;4877539;29;44756;-90